Welcome to Northern Hawkes Bay. New Zealand.
PWS Header
      nz Flag



Hit Counter


W3C Valid W3C Valid logo


    Wairoa

Select any of the Stations below to visit their websites.










Historic Data from Weather Underground
Select the location of interest below. Wairoa is the default. Please have patience, this Data is slow to load in.
Northern Hawkes Bay Historical Data
Daily Summary for March 16, 2017 Units:  English    Metric   Both
« Previous Day
Next Day »
Daily Weekly Monthly Yearly Custom
  High: Low: Average:
Temperature: 67.8 °F 52.5 °F 59.2 °F
Dew Point: 59 °F 52 °F 55.6 °F
Humidity: 98% 71% 89%
Wind Speed: 12.1mph 0mph 3.9mph
Wind Gust: 19.7mph - -
Wind- - SW
Pressure: 30.4 in 30.3 in -
Precipitation: 0.08 in    
Historical Graphs
 
 
Tabular Data for March 16, 2017
Time Temperature Dew Point Pressure Wind Wind Speed Wind Gust Humidity Rainfall Rate (Hourly) solar
00:03 57.4 °F 54.1 °F 30.4 in SW 9.8 mph 15.9 mph 89% 0 in 0 W/m2
00:08 57.4 °F 54.5 °F 30.4 in SW 11.4 mph 18.3 mph 90% 0 in 0 W/m2
00:13 57.4 °F 54.5 °F 30.4 in SW 8.3 mph 18.3 mph 90% 0 in 0 W/m2
00:18 57 °F 54.7 °F 30.4 in SW 9.2 mph 19.7 mph 92% 0 in 0 W/m2
00:23 56.8 °F 54.7 °F 30.4 in WSW 10.7 mph 19.7 mph 92% 0 in 0 W/m2
00:28 56.7 °F 54.7 °F 30.3 in SW 7.6 mph 15.9 mph 93% 0 in 0 W/m2
00:33 56.5 °F 54.9 °F 30.3 in SW 6.9 mph 16.8 mph 94% 0 in 0 W/m2
00:38 56.5 °F 54.9 °F 30.4 in WSW 9.8 mph 16.8 mph 94% 0 in 0 W/m2
00:43 56.5 °F 55 °F 30.4 in WSW 5.4 mph 18.3 mph 95% 0 in 0 W/m2
00:48 56.7 °F 55 °F 30.4 in West 8.3 mph 18.3 mph 94% 0 in 0 W/m2
00:53 56.7 °F 55 °F 30.3 in WSW 5.4 mph 14.5 mph 94% 0 in 0 W/m2
01:03 57.2 °F 55.2 °F 30.3 in WSW 7.6 mph 14.5 mph 93% 0 in 0 W/m2
01:08 57.2 °F 54.9 °F 30.4 in WSW 10.7 mph 17.4 mph 92% 0 in 0 W/m2
01:13 57.2 °F 54.9 °F 30.3 in WSW 6.9 mph 17.4 mph 92% 0 in 0 W/m2
01:18 57.2 °F 55.2 °F 30.4 in SW 6 mph 13.6 mph 93% 0 in 0 W/m2
01:23 57 °F 55.2 °F 30.4 in SW 6.9 mph 13.6 mph 94% 0 in 0 W/m2
01:28 56.8 °F 55.4 °F 30.3 in SW 6 mph 13.6 mph 95% 0 in 0 W/m2
01:44 56.5 °F 55.4 °F 30.3 in SW 5.4 mph 15.9 mph 96% 0.01 in 0 W/m2
01:49 56.7 °F 55.2 °F 30.3 in WSW 7.6 mph 13 mph 95% 0.01 in 0 W/m2
01:54 56.8 °F 55 °F 30.3 in WSW 5.4 mph 13.6 mph 94% 0.01 in 0 W/m2
01:59 57.2 °F 54.9 °F 30.3 in WSW 9.2 mph 15.2 mph 92% 0.01 in 0 W/m2
02:04 57.6 °F 54.7 °F 30.3 in WSW 6.9 mph 15.2 mph 90% 0.01 in 0 W/m2
02:09 57.7 °F 54.5 °F 30.3 in SW 10.7 mph 15.2 mph 89% 0.01 in 0 W/m2
02:14 58.1 °F 54.3 °F 30.3 in SW 10.7 mph 16.8 mph 87% 0.01 in 0 W/m2
02:19 58.3 °F 54.1 °F 30.3 in SW 6.9 mph 16.8 mph 86% 0.01 in 0 W/m2
02:24 58.1 °F 54 °F 30.3 in WSW 7.6 mph 16.8 mph 86% 0.01 in 0 W/m2
02:29 58.3 °F 54.1 °F 30.3 in WSW 10.7 mph 15.2 mph 86% 0.01 in 0 W/m2
02:34 58.3 °F 54.3 °F 30.3 in SW 6.9 mph 13.6 mph 87% 0.01 in 0 W/m2
02:39 58.3 °F 54.3 °F 30.3 in SW 6.9 mph 15.2 mph 87% 0.01 in 0 W/m2
02:44 57.9 °F 54.3 °F 30.3 in SW 6.9 mph 15.2 mph 88% 0 in 0 W/m2
02:49 57.6 °F 54.3 °F 30.3 in SW 4.5 mph 13 mph 89% 0 in 0 W/m2
02:54 57.7 °F 54.9 °F 30.3 in SW 6 mph 13 mph 90% 0 in 0 W/m2
02:59 58.1 °F 54.9 °F 30.3 in SSW 6 mph 17.4 mph 89% 0 in 0 W/m2
03:04 58.5 °F 54.9 °F 30.3 in SW 7.6 mph 17.4 mph 88% 0 in 0 W/m2
03:09 58.6 °F 55 °F 30.3 in SW 10.7 mph 17.4 mph 88% 0 in 0 W/m2
03:14 58.5 °F 54.9 °F 30.3 in SW 12.1 mph 18.3 mph 88% 0 in 0 W/m2
03:19 58.5 °F 54.9 °F 30.3 in SW 9.2 mph 18.3 mph 88% 0 in 0 W/m2
03:24 58.5 °F 54.9 °F 30.3 in SW 12.1 mph 18.3 mph 88% 0 in 0 W/m2
03:29 58.5 °F 54.7 °F 30.3 in SW 7.6 mph 15.2 mph 87% 0 in 0 W/m2
03:34 58.5 °F 54.3 °F 30.3 in SSW 10.7 mph 16.8 mph 86% 0 in 0 W/m2
03:39 58.5 °F 54.3 °F 30.3 in SSW 9.2 mph 16.8 mph 86% 0 in 0 W/m2
03:44 58.3 °F 54.1 °F 30.3 in SSW 9.2 mph 16.8 mph 86% 0 in 0 W/m2
03:49 58.1 °F 54.3 °F 30.3 in SSW 6.9 mph 12.1 mph 87% 0 in 0 W/m2
03:54 58.3 °F 54.9 °F 30.3 in SSW 7.6 mph 16.8 mph 88% 0 in 0 W/m2
03:59 58.3 °F 54.3 °F 30.3 in SSW 11.4 mph 19 mph 87% 0 in 0 W/m2
04:04 58.1 °F 54.7 °F 30.3 in SSW 7.6 mph 19 mph 88% 0 in 0 W/m2
04:09 58.1 °F 54.7 °F 30.3 in SSW 10.7 mph 15.9 mph 88% 0 in 0 W/m2
04:14 58.3 °F 54.9 °F 30.3 in SSW 10.7 mph 16.8 mph 88% 0 in 0 W/m2
04:19 57.9 °F 54.3 °F 30.3 in SSW 9.2 mph 16.8 mph 88% 0 in 0 W/m2
04:24 57.4 °F 54.9 °F 30.3 in SSW 8.3 mph 15.2 mph 91% 0 in 0 W/m2
04:29 57 °F 55.2 °F 30.3 in SSW 7.6 mph 15.2 mph 94% 0 in 0 W/m2
04:34 56.8 °F 55.4 °F 30.3 in SSW 9.2 mph 15.2 mph 95% 0 in 0 W/m2
04:39 56.7 °F 55.2 °F 30.3 in SW 6.9 mph 14.5 mph 95% 0 in 0 W/m2
04:44 56.8 °F 55.8 °F 30.3 in SW 6.9 mph 14.5 mph 96% 0 in 0 W/m2
04:49 56.7 °F 55.6 °F 30.3 in SW 6 mph 14.5 mph 96% 0 in 0 W/m2
04:54 56.5 °F 55.4 °F 30.3 in SW 7.6 mph 14.5 mph 96% 0 in 0 W/m2
04:59 56.3 °F 55.6 °F 30.3 in SW 3.8 mph 11.4 mph 97% 0 in 0 W/m2
05:04 56.1 °F 55.2 °F 30.3 in WSW 2.2 mph 11.4 mph 97% 0 in 0 W/m2
05:09 56.3 °F 55.6 °F 30.3 in SW 7.6 mph 11.4 mph 97% 0 in 0 W/m2
05:14 57.2 °F 55.8 °F 30.3 in SSW 10.7 mph 17.4 mph 95% 0 in 0 W/m2
05:19 57.2 °F 55.8 °F 30.3 in SSW 9.2 mph 17.4 mph 95% 0 in 0 W/m2
05:24 57.2 °F 55.6 °F 30.3 in SSW 8.3 mph 13.6 mph 94% 0 in 0 W/m2
05:29 57.2 °F 55.6 °F 30.3 in SW 7.6 mph 13 mph 94% 0 in 0 W/m2
05:34 57 °F 55.6 °F 30.3 in SW 4.5 mph 12.1 mph 95% 0 in 0 W/m2
05:39 57 °F 55.6 °F 30.3 in SSW 2.2 mph 11.4 mph 95% 0 in 0 W/m2
05:44 57 °F 55.6 °F 30.3 in SW 3.1 mph 10.7 mph 95% 0 in 0 W/m2
05:49 57.2 °F 55.2 °F 30.3 in SW 4.5 mph 9.2 mph 93% 0 in 0 W/m2
05:54 57.6 °F 55.2 °F 30.3 in SW 5.4 mph 14.5 mph 92% 0 in 0 W/m2
05:59 57.7 °F 55 °F 30.3 in SW 6 mph 14.5 mph 91% 0 in 0 W/m2
06:04 57.6 °F 55 °F 30.3 in SSW 6 mph 14.5 mph 91% 0 in 0 W/m2
06:09 57.4 °F 54.9 °F 30.3 in SW 4.5 mph 10.7 mph 91% 0 in 0 W/m2
06:14 57.7 °F 55 °F 30.3 in SSW 5.4 mph 8.3 mph 91% 0 in 0 W/m2
06:19 58.1 °F 54.9 °F 30.3 in SW 6 mph 10.7 mph 89% 0 in 0 W/m2
06:24 58.5 °F 54.7 °F 30.3 in SW 6 mph 10.7 mph 87% 0 in 0 W/m2
06:34 58.8 °F 55 °F 30.4 in SW 10.7 mph 13 mph 87% 0 in 0 W/m2
06:39 58.8 °F 55 °F 30.3 in SW 4.5 mph 13 mph 87% 0 in 0 W/m2
06:44 59 °F 54.9 °F 30.4 in SW 8.3 mph 13 mph 86% 0 in 0 W/m2
06:49 59 °F 54.9 °F 30.4 in SW 4.5 mph 11.4 mph 86% 0 in 0 W/m2
06:54 59 °F 54.9 °F 30.3 in SW 7.6 mph 12.1 mph 86% 0 in 0 W/m2
06:59 59.2 °F 55 °F 30.4 in SW 4.5 mph 12.1 mph 86% 0 in 0 W/m2
07:04 59.2 °F 55 °F 30.3 in SW 0.7 mph 9.8 mph 86% 0 in 0 W/m2
07:09 59 °F 54.9 °F 30.4 in Calm   6.9 mph 86% 0 in 0 W/m2
07:14 59.2 °F 55 °F 30.4 in SW 4.5 mph 7.6 mph 86% 0 in 0 W/m2
07:19 59 °F 54.5 °F 30.4 in WSW 0.7 mph 7.6 mph 85% 0 in 1 W/m2
07:24 58.1 °F 54 °F 30.4 in Calm   6.9 mph 86% 0 in 3 W/m2
07:29 58.1 °F 54.7 °F 30.4 in Calm   6 mph 88% 0 in 7 W/m2
07:34 57.4 °F 53.6 °F 30.4 in West 1.6 mph 6 mph 87% 0 in 8 W/m2
07:39 57.2 °F 53.8 °F 30.4 in North 3.1 mph 4.5 mph 88% 0 in 11 W/m2
07:44 58.1 °F 55.2 °F 30.4 in SW 3.1 mph 8.3 mph 90% 0 in 13 W/m2
07:49 57.7 °F 54.5 °F 30.4 in WSW 4.5 mph 8.3 mph 89% 0 in 13 W/m2
07:54 58.6 °F 55.4 °F 30.4 in WSW 8.3 mph 12.1 mph 89% 0 in 13 W/m2
07:59 59.2 °F 55 °F 30.4 in SW 3.8 mph 12.1 mph 86% 0 in 18 W/m2
08:04 59.4 °F 55.2 °F 30.4 in SSW 6 mph 14.5 mph 86% 0 in 22 W/m2
08:09 59.4 °F 54.9 °F 30.4 in SW 6 mph 14.5 mph 85% 0 in 17 W/m2
08:14 59 °F 54.9 °F 30.4 in SW 4.5 mph 12.1 mph 86% 0 in 10 W/m2
08:19 58.6 °F 55 °F 30.4 in SW 2.2 mph 10.7 mph 88% 0 in 17 W/m2
08:24 58.8 °F 55.6 °F 30.4 in WSW 6 mph 12.1 mph 89% 0 in 25 W/m2
08:29 59.2 °F 55.2 °F 30.4 in SW 3.8 mph 12.1 mph 87% 0 in 32 W/m2
08:34 59.5 °F 55.4 °F 30.4 in SW 6.9 mph 15.2 mph 86% 0.01 in 35 W/m2
08:39 59.7 °F 55.6 °F 30.4 in SSW 7.6 mph 15.2 mph 86% 0.01 in 24 W/m2
08:44 59.5 °F 55 °F 30.4 in SW 4.5 mph 13 mph 85% 0.01 in 33 W/m2
08:49 59.4 °F 55.2 °F 30.4 in SW 3.8 mph 11.4 mph 86% 0.01 in 43 W/m2
08:54 59.4 °F 55.6 °F 30.4 in SW 2.2 mph 7.6 mph 87% 0.01 in 30 W/m2
08:59 59.4 °F 55.6 °F 30.4 in WSW 3.1 mph 7.6 mph 87% 0.01 in 46 W/m2
09:04 59.5 °F 55.8 °F 30.4 in SW 3.1 mph 10.7 mph 87% 0.01 in 64 W/m2
09:09 59.7 °F 55.9 °F 30.4 in SW 7.6 mph 10.7 mph 87% 0.01 in 48 W/m2
09:14 59.9 °F 55.8 °F 30.4 in SW 8.3 mph 15.2 mph 86% 0.01 in 73 W/m2
09:19 60.1 °F 55.9 °F 30.4 in SSW 5.4 mph 15.2 mph 86% 0.01 in 70 W/m2
09:24 60.1 °F 55.9 °F 30.4 in SW 5.4 mph 11.4 mph 86% 0.01 in 61 W/m2
09:29 60.1 °F 55.9 °F 30.4 in WSW 4.5 mph 9.8 mph 86% 0.01 in 62 W/m2
09:34 60.3 °F 56.1 °F 30.4 in SW 6.9 mph 9.8 mph 86% 0 in 81 W/m2
09:39 60.3 °F 55.8 °F 30.4 in SW 1.6 mph 10.7 mph 85% 0 in 82 W/m2
09:44 60.3 °F 56.1 °F 30.4 in SW 0.7 mph 10.7 mph 86% 0 in 78 W/m2
09:49 59.9 °F 55.4 °F 30.4 in NW 1.6 mph 4.5 mph 85% 0 in 48 W/m2
09:54 59.2 °F 55 °F 30.4 in SW 6.9 mph 9.8 mph 86% 0 in 80 W/m2
09:59 59.7 °F 56.1 °F 30.4 in SW 7.6 mph 9.8 mph 88% 0 in 93 W/m2
10:04 59.9 °F 56.5 °F 30.4 in SW 6.9 mph 11.4 mph 88% 0 in 95 W/m2
10:09 59.9 °F 56.5 °F 30.4 in SW 6 mph 11.4 mph 88% 0 in 101 W/m2
10:14 60.1 °F 56.8 °F 30.4 in SW 6 mph 11.4 mph 89% 0 in 123 W/m2
10:19 60.1 °F 56.8 °F 30.4 in SW 7.6 mph 11.4 mph 89% 0 in 138 W/m2
10:24 60.3 °F 57 °F 30.4 in SW 5.4 mph 11.4 mph 89% 0 in 158 W/m2
10:29 60.4 °F 57.2 °F 30.4 in SW 8.3 mph 12.1 mph 89% 0 in 185 W/m2
10:34 60.6 °F 57 °F 30.4 in SW 6.9 mph 13 mph 88% 0 in 190 W/m2
10:39 60.8 °F 56.7 °F 30.4 in SW 9.8 mph 14.5 mph 86% 0 in 200 W/m2
10:44 61 °F 56.8 °F 30.4 in WSW 9.8 mph 14.5 mph 86% 0 in 227 W/m2
10:49 61 °F 56.5 °F 30.4 in SW 8.3 mph 14.5 mph 85% 0 in 239 W/m2
10:54 61 °F 56.5 °F 30.4 in SW 9.2 mph 14.5 mph 85% 0 in 173 W/m2
10:59 60.8 °F 56.3 °F 30.4 in West 7.6 mph 13.6 mph 85% 0 in 191 W/m2
11:04 60.4 °F 56.7 °F 30.4 in West 8.3 mph 13.6 mph 87% 0 in 246 W/m2
11:09 60.6 °F 56.5 °F 30.4 in SW 3.8 mph 13 mph 86% 0 in 609 W/m2
11:14 61.9 °F 57.4 °F 30.4 in SW 6.9 mph 13 mph 85% 0 in 308 W/m2
11:19 61.7 °F 56.1 °F 30.4 in WSW 6 mph 13 mph 82% 0 in 276 W/m2
11:24 61.3 °F 55.8 °F 30.4 in WSW 6.9 mph 13 mph 82% 0 in 218 W/m2
11:29 61.2 °F 55.6 °F 30.4 in WSW 3.1 mph 13 mph 82% 0 in 173 W/m2
11:34 61 °F 55.6 °F 30.4 in SW 5.4 mph 12.1 mph 82% 0 in 177 W/m2
11:39 60.8 °F 55.2 °F 30.4 in SW 7.6 mph 12.1 mph 82% 0 in 171 W/m2
11:44 60.4 °F 55.6 °F 30.4 in SW 9.2 mph 13 mph 84% 0 in 163 W/m2
11:48 60.3 °F 55.8 °F 30.4 in SW 8.3 mph 13 mph 85% 0 in 186 W/m2
11:53 60.1 °F 55.9 °F 30.4 in SW 6.9 mph 11.4 mph 86% 0 in 161 W/m2
11:58 59.9 °F 55.9 °F 30.4 in SW 6 mph 9.8 mph 87% 0 in 152 W/m2
12:04 59.7 °F 56.1 °F 30.4 in SW 4.5 mph 10.7 mph 88% 0 in 109 W/m2
12:09 59.7 °F 56.5 °F 30.4 in SW 4.5 mph 10.7 mph 89% 0 in 116 W/m2
12:14 59.5 °F 56.7 °F 30.4 in SSW 4.5 mph 8.3 mph 90% 0 in 116 W/m2
12:19 59.4 °F 56.5 °F 30.4 in Calm   6.9 mph 90% 0.01 in 94 W/m2
12:24 59.7 °F 56.8 °F 30.4 in Calm   6 mph 90% 0.01 in 72 W/m2
12:29 59.5 °F 56.7 °F 30.4 in Calm     90% 0.01 in 84 W/m2
12:34 59.4 °F 56.5 °F 30.4 in Calm     90% 0.01 in 82 W/m2
12:39 59.4 °F 56.5 °F 30.4 in Calm     90% 0.02 in 85 W/m2
12:44 59.4 °F 56.5 °F 30.4 in Calm     90% 0.02 in 82 W/m2
12:49 59.4 °F 56.7 °F 30.4 in Calm     91% 0.02 in 89 W/m2
12:54 59.4 °F 56.7 °F 30.4 in Calm     91% 0.04 in 84 W/m2
12:59 59.2 °F 56.7 °F 30.4 in Calm     91% 0.04 in 83 W/m2
13:04 59.4 °F 57 °F 30.4 in Calm     92% 0.04 in 78 W/m2
13:09 59.4 °F 57 °F 30.4 in Calm     92% 0.04 in 86 W/m2
13:14 59.4 °F 57.4 °F 30.4 in Calm     93% 0.04 in 95 W/m2
13:19 59.2 °F 57.2 °F 30.4 in Calm     93% 0.02 in 82 W/m2
13:24 59.2 °F 57.2 °F 30.4 in Calm   3.1 mph 93% 0.02 in 85 W/m2
13:29 59.2 °F 57.2 °F 30.4 in Calm   3.8 mph 93% 0.02 in 73 W/m2
13:34 59 °F 57.4 °F 30.4 in Calm   3.8 mph 94% 0.01 in 65 W/m2
13:39 58.8 °F 57.4 °F 30.4 in Calm     95% 0.01 in 62 W/m2
13:44 59 °F 57.4 °F 30.4 in NNW 3.1 mph 5.4 mph 94% 0.02 in 71 W/m2
13:49 58.8 °F 57.7 °F 30.4 in NNW 3.1 mph 5.4 mph 96% 0.02 in 85 W/m2
13:54 58.8 °F 57.7 °F 30.4 in Calm   5.4 mph 96% 0.01 in 71 W/m2
13:59 59 °F 57.6 °F 30.4 in Calm   5.4 mph 95% 0.01 in 58 W/m2
14:04 59.2 °F 57.7 °F 30.4 in Calm   2.2 mph 95% 0.02 in 102 W/m2
14:09 59.2 °F 57.7 °F 30.4 in Calm   3.8 mph 95% 0.02 in 85 W/m2
14:14 59.2 °F 57.7 °F 30.4 in Calm   3.8 mph 95% 0.02 in 145 W/m2
14:19 59.4 °F 58.3 °F 30.4 in Calm     96% 0.02 in 163 W/m2
14:24 59.7 °F 58.6 °F 30.4 in Calm     96% 0.02 in 160 W/m2
14:29 59.9 °F 58.8 °F 30.4 in Calm     96% 0.02 in 144 W/m2
14:34 60.1 °F 59 °F 30.4 in Calm     96% 0.02 in 133 W/m2
14:39 60.3 °F 58.8 °F 30.4 in Calm   3.1 mph 95% 0.02 in 119 W/m2
14:44 60.3 °F 58.8 °F 30.4 in Calm   3.1 mph 95% 0.01 in 100 W/m2
14:49 60.3 °F 58.5 °F 30.4 in Calm     94% 0.01 in 97 W/m2
14:54 60.3 °F 58.3 °F 30.4 in Calm     93% 0.01 in 82 W/m2
14:59 60.8 °F 58.5 °F 30.4 in Calm     92% 0.01 in 112 W/m2
15:04 61.2 °F 58.5 °F 30.4 in Calm     91% 0 in 144 W/m2
15:10 61.5 °F 58.6 °F 30.4 in SW 1.6 mph 6.9 mph 90% 0 in 209 W/m2
15:15 62.1 °F 58.3 °F 30.4 in SSW 3.1 mph 7.6 mph 87% 0 in 192 W/m2
15:20 62.6 °F 57.9 °F 30.4 in SSW 3.1 mph 7.6 mph 85% 0 in 211 W/m2
15:36 63.5 °F 57.9 °F 30.4 in SSW 4.5 mph 7.6 mph 82% 0 in 258 W/m2
15:41 63.7 °F 57.7 °F 30.4 in SSW 4.5 mph 8.3 mph 81% 0 in 262 W/m2
15:46 64.2 °F 57.6 °F 30.4 in South 4.5 mph 8.3 mph 79% 0 in 307 W/m2
15:51 65.3 °F 58.6 °F 30.4 in South 5.4 mph 7.6 mph 79% 0 in 258 W/m2
15:56 65.7 °F 57.9 °F 30.4 in South 3.1 mph 6.9 mph 76% 0 in 324 W/m2
16:01 66 °F 58.6 °F 30.4 in South 3.1 mph 7.6 mph 77% 0 in 302 W/m2
16:06 66 °F 57.9 °F 30.4 in South 4.5 mph 10.7 mph 75% 0 in 360 W/m2
16:11 66.2 °F 57.7 °F 30.4 in South 3.8 mph 10.7 mph 74% 0 in 243 W/m2
16:16 65.8 °F 57.7 °F 30.4 in SSW 5.4 mph 9.2 mph 75% 0 in 350 W/m2
16:21 66.2 °F 57.7 °F 30.4 in SSW 6 mph 9.8 mph 74% 0 in 253 W/m2
16:26 66.2 °F 57.7 °F 30.4 in SSW 4.5 mph 9.8 mph 74% 0 in 227 W/m2
16:31 66.2 °F 57.7 °F 30.4 in SSW 5.4 mph 9.8 mph 74% 0 in 195 W/m2
16:36 66.6 °F 57.9 °F 30.4 in SSW 5.4 mph 8.3 mph 74% 0 in 319 W/m2
16:41 67.3 °F 57.9 °F 30.4 in SW 3.1 mph 7.6 mph 72% 0 in 496 W/m2
16:46 67.8 °F 58.1 °F 30.4 in SSW 5.4 mph 9.2 mph 71% 0 in 249 W/m2
16:51 66.4 °F 57 °F 30.4 in South 3.8 mph 9.2 mph 72% 0 in 242 W/m2
16:56 65.8 °F 57.4 °F 30.4 in South 3.8 mph 8.3 mph 74% 0 in 210 W/m2
17:01 65.7 °F 57.6 °F 30.4 in SSW 5.4 mph 6.9 mph 75% 0 in 225 W/m2
17:06 65.7 °F 57.9 °F 30.4 in SSW 5.4 mph 7.6 mph 76% 0 in 227 W/m2
17:11 65.3 °F 57.2 °F 30.4 in South 3.1 mph 7.6 mph 75% 0 in 210 W/m2
17:16 65.5 °F 57.4 °F 30.4 in South 2.2 mph 7.6 mph 75% 0 in 188 W/m2
17:21 65.7 °F 57.6 °F 30.4 in South 3.1 mph 6 mph 75% 0 in 179 W/m2
17:26 65.5 °F 57.7 °F 30.4 in South 1.6 mph 6 mph 76% 0 in 176 W/m2
17:31 65.3 °F 57.2 °F 30.4 in SSW 3.1 mph 6 mph 75% 0 in 170 W/m2
17:36 65.1 °F 57.4 °F 30.4 in SSW 4.5 mph 6 mph 76% 0 in 163 W/m2
17:41 65.5 °F 57.7 °F 30.4 in SSW 3.1 mph 6 mph 76% 0 in 153 W/m2
17:46 65.3 °F 57.6 °F 30.4 in SSW 3.1 mph 6.9 mph 76% 0 in 146 W/m2
17:51 65.3 °F 57.6 °F 30.4 in SSW 2.2 mph 6.9 mph 76% 0 in 140 W/m2
17:56 65.3 °F 57.2 °F 30.4 in South 4.5 mph 6.9 mph 75% 0 in 146 W/m2
18:01 65.3 °F 57.6 °F 30.4 in SSW 3.8 mph 6.9 mph 76% 0 in 135 W/m2
18:06 65.1 °F 57.4 °F 30.4 in South 3.1 mph 6.9 mph 76% 0 in 136 W/m2
18:11 65.3 °F 57.2 °F 30.4 in South 3.8 mph 6 mph 75% 0 in 114 W/m2
18:16 65.5 °F 57.7 °F 30.4 in SSW 2.2 mph 6 mph 76% 0 in 108 W/m2
18:21 65.1 °F 57 °F 30.4 in SSW 3.8 mph 6 mph 75% 0 in 90 W/m2
18:26 65.7 °F 57.9 °F 30.4 in SSW 3.1 mph 6 mph 76% 0 in 79 W/m2
18:31 65.3 °F 57.2 °F 30.4 in South 1.6 mph 6.9 mph 75% 0 in 67 W/m2
18:36 65.3 °F 57.2 °F 30.4 in South 3.1 mph 6.9 mph 75% 0 in 43 W/m2
18:41 64.6 °F 56.8 °F 30.4 in South 3.1 mph 5.4 mph 76% 0 in 34 W/m2
18:46 63.7 °F 56.7 °F 30.4 in Calm   5.4 mph 78% 0 in 30 W/m2
18:51 63.3 °F 56.5 °F 30.4 in Calm   5.4 mph 78% 0 in 26 W/m2
18:56 63 °F 55.9 °F 30.4 in Calm     78% 0 in 23 W/m2
19:01 62.6 °F 55.9 °F 30.4 in Calm     79% 0 in 21 W/m2
19:06 62.6 °F 56.5 °F 30.4 in Calm     80% 0 in 18 W/m2
19:11 62.4 °F 56.5 °F 30.4 in Calm     81% 0 in 15 W/m2
19:16 61.9 °F 55.8 °F 30.4 in Calm     80% 0 in 12 W/m2
19:21 61.3 °F 55.6 °F 30.4 in Calm     81% 0 in 7 W/m2
19:38 59.7 °F 54.7 °F 30.4 in Calm     83% 0 in 0 W/m2
19:43 59.4 °F 54.5 °F 30.4 in Calm     84% 0 in 0 W/m2
19:48 59.2 °F 55 °F 30.4 in Calm     86% 0 in 0 W/m2
19:53 58.8 °F 55.2 °F 30.4 in Calm     88% 0 in 0 W/m2
19:58 58.5 °F 54.9 °F 30.4 in Calm     88% 0 in 0 W/m2
20:03 58.1 °F 54.7 °F 30.4 in Calm     88% 0 in 0 W/m2
20:08 57.7 °F 54.5 °F 30.4 in Calm     89% 0 in 0 W/m2
20:13 57.6 °F 54.7 °F 30.4 in Calm     90% 0 in 0 W/m2
20:18 57.4 °F 54.9 °F 30.4 in Calm     91% 0 in 0 W/m2
20:23 57.2 °F 54.9 °F 30.4 in Calm     92% 0 in 0 W/m2
20:28 57 °F 55.2 °F 30.4 in Calm     94% 0 in 0 W/m2
20:33 56.8 °F 55 °F 30.4 in Calm     94% 0 in 0 W/m2
20:38 56.5 °F 55 °F 30.4 in Calm     95% 0 in 0 W/m2
20:43 56.5 °F 55 °F 30.4 in Calm     95% 0 in 0 W/m2
20:48 56.1 °F 55 °F 30.4 in Calm     96% 0 in 0 W/m2
20:53 55.9 °F 54.9 °F 30.4 in Calm     96% 0 in 0 W/m2
20:58 55.9 °F 54.9 °F 30.4 in Calm     96% 0 in 0 W/m2
21:03 55.8 °F 54.7 °F 30.4 in Calm     96% 0 in 0 W/m2
21:08 55.6 °F 54.5 °F 30.4 in Calm     96% 0 in 0 W/m2
21:13 55.6 °F 54.5 °F 30.4 in Calm     96% 0 in 0 W/m2
21:18 55.4 °F 54.7 °F 30.4 in Calm     97% 0 in 0 W/m2
21:23 55.4 °F 54.7 °F 30.4 in Calm     97% 0 in 0 W/m2
21:28 55.2 °F 54.3 °F 30.4 in Calm     97% 0 in 0 W/m2
21:33 55.2 °F 54.3 °F 30.4 in Calm     97% 0 in 0 W/m2
21:38 55 °F 54.1 °F 30.4 in Calm     97% 0 in 0 W/m2
21:43 54.9 °F 54 °F 30.4 in Calm     97% 0 in 0 W/m2
21:48 54.7 °F 54 °F 30.4 in Calm     97% 0 in 0 W/m2
21:53 54.5 °F 53.8 °F 30.4 in Calm     97% 0 in 0 W/m2
21:58 54.3 °F 53.4 °F 30.4 in Calm     97% 0 in 0 W/m2
22:03 54 °F 53.1 °F 30.4 in Calm     97% 0 in 0 W/m2
22:08 54 °F 53.1 °F 30.4 in Calm     97% 0 in 0 W/m2
22:13 53.8 °F 53.1 °F 30.4 in Calm     97% 0 in 0 W/m2
22:18 53.6 °F 52.9 °F 30.4 in Calm     97% 0 in 0 W/m2
22:23 53.6 °F 52.9 °F 30.4 in Calm     97% 0 in 0 W/m2
22:28 53.6 °F 52.9 °F 30.4 in Calm     97% 0 in 0 W/m2
22:33 53.4 °F 52.9 °F 30.4 in Calm     98% 0 in 0 W/m2
22:38 53.2 °F 52.7 °F 30.4 in Calm     98% 0 in 0 W/m2
22:43 53.2 °F 52.7 °F 30.4 in Calm     98% 0 in 0 W/m2
22:48 53.2 °F 52.7 °F 30.4 in Calm     98% 0 in 0 W/m2
22:53 53.1 °F 52.5 °F 30.4 in Calm     98% 0 in 0 W/m2
22:58 53.1 °F 52.5 °F 30.4 in Calm     98% 0 in 0 W/m2
23:04 53.1 °F 52.5 °F 30.4 in Calm     98% 0 in 0 W/m2
23:09 52.9 °F 52.3 °F 30.4 in Calm     98% 0 in 0 W/m2
23:14 52.9 °F 52.3 °F 30.4 in Calm     98% 0 in 0 W/m2
23:19 52.9 °F 52.3 °F 30.4 in Calm     98% 0 in 0 W/m2
23:24 52.9 °F 52.3 °F 30.4 in Calm     98% 0 in 0 W/m2
23:29 52.7 °F 52.2 °F 30.4 in Calm     98% 0 in 0 W/m2
23:34 52.7 °F 52.2 °F 30.4 in Calm     98% 0 in 0 W/m2
23:39 52.7 °F 52.2 °F 30.4 in Calm     98% 0 in 0 W/m2
23:44 52.7 °F 52.2 °F 30.4 in Calm     98% 0 in 0 W/m2
23:49 52.7 °F 52.2 °F 30.4 in Calm   3.1 mph 98% 0 in 0 W/m2
23:54 52.7 °F 52.2 °F 30.4 in Calm   3.1 mph 98% 0 in 0 W/m2
23:59 52.5 °F 52 °F 30.4 in Calm     98% 0 in 0 W/m2
Northern Hawkes Bay. New Zealand Historic Data
Compliments of Weather Underground - 2 mb